Main page
METAR-TAF:

METAR-TAF

Airports :

Stuart Powell Field

Danville, Kentucky, United States

latitude: 37-34-40N, longitude: 084-46-11W, elevation: 1023 ft

Current weather observation

The report was made 23 minutes ago, at 11:15 UTC
Wind 6 mph from the South
Temperature 32°F
Humidity 59%
Pressure 30.24 in. Hg
Visibility: 10 miles
Overcast at a height of 11000 ft

METAR: KDVK 231115Z AUTO 19005KT 10SM OVC110 00/M07 A3024 RMK AO2

Time: 06:38 (11:38 UTC)


TAF: missing

Weather observations and forecasts of more than 4000 airports (METAR and TAF reports).

The available stations are represented by yellow and red dots on the map.

Hover mouse over dot to see the name of the station.

Then click to see weather observations and forecasts.

To change the map : click on the green buttons with a black cross to zoom in, on the green button with a dash to zoom out, or on the green arrows for adjacent maps.


METAR-TAF: